Alamosa, CO (81101)

8:28 PM MDT on May 25, 2017 (GMT -0600)
Alamosa | | Change Station

Elev 7543 ft 37.46 °N, 105.86 °W | Updated 22 seconds ago

Clear
Clear
59.9 °F
Feels Like 59.9 °F
N
4.0
Wind Variable Wind from WSW

Today
High -- | Low -- °F
--% Chance of Precip.
Yesterday
High -- | Low -- °F
Precip. -- in
Pressure 29.57 in
Visibility 10.0 miles
Clouds Clear
Dew Point 29 °F
Humidity 31%
Rainfall 0.00 in
Snow Depth Not available.
5:47 AM 8:14 PM
New Moon, 0% visible
METAR KALS 260152Z AUTO 24015KT 10SM CLR 17/M03 A2985 RMK AO2 PK WND 26034/0054 SLP014 T01671033
Pressure 29.57 in
Visibility 10.0 miles
Clouds Clear
Dew Point 29 °F
Humidity 31%
Rainfall 0.00 in
Snow Depth Not available.
5:47 AM 8:14 PM
New Moon, 0% visible
METAR KALS 260152Z AUTO 24015KT 10SM CLR 17/M03 A2985 RMK AO2 PK WND 26034/0054 SLP014 T01671033

Get Severe Weather Alerts

Thanks for signing up!

Be on the lookout for a verification email in your inbox.

You'll start receiving the daily forecast at 6 AM.

×

10-Day Weather Forecast

Almanac

Astronomy

May. 25, 2017 Rise Set
Actual Time
Civil Twilight
Nautical Twilight
Astronomical Twilight
Moon
Length of Visible Light
Length of Day
Tomorrow will be .
, % of the Moon is Illuminated

Today's Extremes

State Highs State Lows

Community

WunderPhotos

Category 6

Welcome to Category 6. This is the collective home for Weather Underground's featured writeups by Dr. Jeff Masters (right), Bob Henson (left), Chris Burt, and other regular contributors.

Nearby

Air Quality

  Air Quality AQ Index Pollutant
Not available.

Snow Depth

Station Depth Elevation

Earthquake Activity

City Distance Mag. Time & Date
Minimum magnitude displayed is 2.5.

Coastal Water Temperatures

Place Temperature

Stations

Nearby Weather Stations

Station Location Temp. Windchill Dew Point Humidity Wind Precip. Elev Updated Type
                   

Watches & Warnings

There are currently no watches in effect.